createdAt,value
2023-03-23T15:59:27.313Z,9.05
2023-03-23T16:02:25.660Z,8.33
2023-03-23T16:05:19.513Z,10.10
2023-03-23T16:08:13.687Z,11.43
2023-03-23T16:11:14.964Z,8.15
2023-03-23T16:14:06.623Z,9.70
2023-03-23T16:17:01.023Z,9.88
2023-03-23T16:19:55.552Z,9.18
2023-03-23T16:22:48.370Z,9.98
2023-03-23T16:25:39.672Z,12.28
2023-03-23T16:28:30.757Z,8.10
2023-03-23T16:31:22.142Z,8.25
2023-03-23T16:34:13.431Z,8.53
2023-03-23T16:37:06.895Z,7.83
2023-03-23T16:39:58.731Z,10.43
2023-03-23T16:42:50.805Z,8.98
2023-03-23T16:45:44.219Z,8.90
2023-03-23T16:48:35.536Z,10.60
2023-03-23T16:51:26.745Z,10.30
2023-03-23T16:54:18.115Z,7.80
2023-03-23T16:57:09.652Z,8.58
2023-03-23T17:00:00.888Z,12.45
2023-03-23T17:02:53.805Z,8.73
2023-03-23T17:05:46.011Z,8.75
2023-03-23T17:08:38.056Z,11.88
2023-03-23T17:11:29.328Z,11.38
2023-03-23T17:14:21.121Z,10.98
2023-03-23T17:17:12.199Z,8.00
2023-03-23T17:20:03.771Z,10.30
2023-03-23T17:22:55.310Z,12.23
2023-03-23T17:25:48.670Z,10.58
2023-03-23T17:28:39.956Z,8.45
2023-03-23T17:31:31.574Z,12.60
2023-03-23T17:34:22.676Z,9.30
2023-03-23T17:37:14.164Z,8.30
2023-03-23T17:40:07.055Z,9.53
2023-03-23T17:42:58.221Z,8.25
2023-03-23T17:45:49.879Z,10.82
2023-03-23T17:48:42.152Z,9.80
2023-03-23T17:51:33.436Z,8.43
2023-03-23T17:54:25.607Z,10.80
2023-03-23T17:57:17.196Z,13.18
2023-03-23T18:00:11.432Z,8.30
2023-03-23T18:03:02.597Z,11.18
2023-03-23T18:05:56.320Z,9.25
2023-03-23T18:08:47.848Z,11.10
2023-03-23T18:11:39.339Z,11.45
2023-03-23T18:14:30.836Z,8.75
2023-03-23T18:17:22.276Z,9.40
2023-03-23T18:20:13.760Z,10.35
2023-03-23T18:23:05.177Z,8.18
2023-03-23T18:25:56.830Z,11.40
2023-03-23T18:28:48.622Z,10.10
2023-03-23T18:31:40.451Z,8.68
2023-03-23T18:34:32.215Z,8.18
2023-03-23T18:37:23.564Z,8.58
2023-03-23T18:40:15.812Z,8.88
2023-03-23T18:43:07.849Z,10.50
2023-03-23T18:45:59.970Z,10.45
2023-03-23T18:48:51.204Z,10.93
2023-03-23T18:51:42.618Z,8.30
2023-03-23T18:54:35.230Z,9.68
2023-03-23T18:57:26.959Z,10.05
2023-03-23T19:00:19.608Z,10.98
2023-03-23T19:03:12.119Z,10.80
2023-03-23T19:06:04.697Z,15.40
2023-03-23T19:08:57.340Z,11.90
2023-03-23T19:11:48.728Z,14.05
2023-03-23T19:14:41.208Z,12.30
2023-03-23T19:17:32.511Z,15.65
2023-03-23T19:23:17.060Z,19.57
2023-03-23T19:29:23.158Z,17.73
2023-03-23T19:31:40.633Z,18.25
2023-03-23T19:34:34.686Z,14.05
2023-03-23T19:40:20.936Z,12.95
2023-03-23T19:45:47.059Z,13.68
2023-03-23T19:48:39.731Z,10.72
2023-03-23T19:51:31.793Z,11.50
2023-03-23T19:54:23.264Z,10.98
2023-03-23T19:59:54.465Z,10.85
2023-03-23T20:02:46.213Z,13.70
2023-03-23T20:05:38.457Z,9.53
2023-03-23T20:08:29.924Z,9.75
2023-03-23T20:11:22.057Z,11.75
2023-03-23T20:14:13.477Z,10.32
2023-03-23T20:17:05.640Z,11.00
2023-03-23T20:22:36.551Z,8.83
2023-03-23T20:25:28.187Z,12.03
2023-03-23T20:31:21.024Z,11.60
2023-03-23T20:36:50.290Z,11.57
2023-03-23T20:39:42.456Z,13.43
2023-03-23T20:42:33.964Z,12.63
2023-03-23T20:45:25.146Z,12.68
2023-03-23T20:48:17.078Z,12.28
2023-03-23T20:51:11.651Z,11.57
2023-03-23T20:54:03.960Z,9.35
2023-03-23T20:56:57.239Z,13.25
2023-03-23T21:02:34.861Z,10.23
2023-03-23T21:08:11.827Z,11.12
2023-03-23T21:13:45.025Z,7.42
2023-03-23T21:16:36.997Z,9.60
2023-03-23T21:19:28.337Z,8.83
2023-03-23T21:22:19.823Z,7.83
2023-03-23T21:25:11.461Z,7.47
2023-03-23T21:28:03.698Z,6.55
2023-03-23T21:30:55.263Z,8.25
2023-03-23T21:33:46.514Z,6.80
2023-03-23T21:42:03.233Z,10.08
2023-03-23T21:44:56.453Z,9.70
2023-03-23T21:50:30.238Z,6.05
2023-03-23T21:53:22.534Z,5.78
2023-03-23T21:56:15.716Z,8.10
2023-03-23T21:59:08.018Z,8.00
2023-03-23T22:01:59.548Z,6.97
2023-03-23T22:04:52.415Z,6.10
2023-03-23T22:10:23.406Z,10.15
2023-03-23T22:15:54.466Z,13.30
2023-03-23T22:18:46.976Z,18.42
2023-03-23T22:24:16.892Z,10.78
2023-03-23T22:29:53.056Z,12.03
2023-03-23T22:35:33.987Z,4.20
2023-03-23T22:41:07.567Z,4.03
2023-03-23T22:43:59.325Z,5.55
2023-03-23T22:46:50.785Z,4.50
2023-03-23T22:52:22.968Z,6.05
2023-03-23T22:55:14.456Z,5.15
2023-03-23T22:58:05.882Z,5.95
2023-03-23T23:01:00.374Z,5.15
2023-03-23T23:03:52.313Z,4.92
2023-03-23T23:06:44.009Z,4.08
2023-03-23T23:09:35.500Z,5.80
2023-03-23T23:12:29.846Z,5.47
2023-03-23T23:15:21.337Z,10.32
2023-03-23T23:18:13.333Z,6.42
2023-03-23T23:21:07.300Z,4.28
2023-03-23T23:23:58.591Z,5.40
2023-03-23T23:29:32.383Z,5.50
2023-03-23T23:32:23.921Z,4.55
2023-03-23T23:37:53.495Z,3.08
2023-03-23T23:40:47.180Z,5.28
2023-03-23T23:43:39.078Z,2.98
2023-03-23T23:46:31.533Z,3.65
2023-03-23T23:49:23.243Z,4.42
2023-03-23T23:52:14.929Z,5.55
2023-03-23T23:55:09.170Z,3.85
2023-03-23T23:58:00.910Z,6.55
